sensor_id;sensor_type;location;lat;lon;timestamp;P1;durP1;ratioP1;P2;durP2;ratioP2
25936;SDS011;13733;51.178;4.450;2023-05-10T00:01:30;23.45;;;13.57;;
25936;SDS011;13733;51.178;4.450;2023-05-10T00:03:56;25.95;;;14.13;;
25936;SDS011;13733;51.178;4.450;2023-05-10T00:06:21;22.08;;;13.35;;
25936;SDS011;13733;51.178;4.450;2023-05-10T00:08:48;20.17;;;13.63;;
25936;SDS011;13733;51.178;4.450;2023-05-10T00:11:14;18.67;;;13.88;;
25936;SDS011;13733;51.178;4.450;2023-05-10T00:13:40;24.02;;;15.00;;
25936;SDS011;13733;51.178;4.450;2023-05-10T00:16:06;21.10;;;14.27;;
25936;SDS011;13733;51.178;4.450;2023-05-10T00:18:31;24.77;;;14.82;;
25936;SDS011;13733;51.178;4.450;2023-05-10T00:20:57;23.02;;;15.15;;
25936;SDS011;13733;51.178;4.450;2023-05-10T00:23:23;25.40;;;14.52;;
25936;SDS011;13733;51.178;4.450;2023-05-10T00:25:49;24.90;;;14.85;;
25936;SDS011;13733;51.178;4.450;2023-05-10T00:28:15;22.33;;;14.85;;
25936;SDS011;13733;51.178;4.450;2023-05-10T00:30:42;27.13;;;15.27;;
25936;SDS011;13733;51.178;4.450;2023-05-10T00:33:08;23.67;;;15.77;;
25936;SDS011;13733;51.178;4.450;2023-05-10T00:35:34;31.25;;;15.98;;
25936;SDS011;13733;51.178;4.450;2023-05-10T00:37:59;23.73;;;14.23;;
25936;SDS011;13733;51.178;4.450;2023-05-10T00:40:25;22.30;;;14.38;;
25936;SDS011;13733;51.178;4.450;2023-05-10T00:42:56;24.45;;;14.98;;
25936;SDS011;13733;51.178;4.450;2023-05-10T00:45:23;25.45;;;15.48;;
25936;SDS011;13733;51.178;4.450;2023-05-10T00:47:50;27.08;;;16.00;;
25936;SDS011;13733;51.178;4.450;2023-05-10T00:50:20;30.55;;;17.02;;
25936;SDS011;13733;51.178;4.450;2023-05-10T00:52:47;33.60;;;16.73;;
25936;SDS011;13733;51.178;4.450;2023-05-10T00:55:14;31.02;;;17.50;;
25936;SDS011;13733;51.178;4.450;2023-05-10T00:57:39;23.95;;;15.93;;
25936;SDS011;13733;51.178;4.450;2023-05-10T01:00:06;21.38;;;15.57;;
25936;SDS011;13733;51.178;4.450;2023-05-10T01:02:33;23.27;;;15.13;;
25936;SDS011;13733;51.178;4.450;2023-05-10T01:05:00;25.08;;;16.05;;
25936;SDS011;13733;51.178;4.450;2023-05-10T01:07:28;29.05;;;17.45;;
25936;SDS011;13733;51.178;4.450;2023-05-10T01:09:55;27.38;;;18.02;;
25936;SDS011;13733;51.178;4.450;2023-05-10T01:12:21;28.65;;;17.00;;
25936;SDS011;13733;51.178;4.450;2023-05-10T01:14:49;30.40;;;18.45;;
25936;SDS011;13733;51.178;4.450;2023-05-10T01:17:14;29.05;;;18.48;;
25936;SDS011;13733;51.178;4.450;2023-05-10T01:19:41;29.55;;;18.83;;
25936;SDS011;13733;51.178;4.450;2023-05-10T01:24:40;32.17;;;20.65;;
25936;SDS011;13733;51.178;4.450;2023-05-10T01:29:59;31.80;;;20.83;;
25936;SDS011;13733;51.178;4.450;2023-05-10T01:32:50;32.08;;;20.20;;
25936;SDS011;13733;51.178;4.450;2023-05-10T01:38:17;30.00;;;19.42;;
25936;SDS011;13733;51.178;4.450;2023-05-10T01:41:24;28.52;;;20.65;;
25936;SDS011;13733;51.178;4.450;2023-05-10T01:43:46;30.33;;;18.77;;
25936;SDS011;13733;51.178;4.450;2023-05-10T01:46:16;33.03;;;19.58;;
25936;SDS011;13733;51.178;4.450;2023-05-10T01:48:51;28.35;;;18.48;;
25936;SDS011;13733;51.178;4.450;2023-05-10T01:51:26;32.63;;;19.48;;
25936;SDS011;13733;51.178;4.450;2023-05-10T01:54:01;31.38;;;20.17;;
25936;SDS011;13733;51.178;4.450;2023-05-10T01:56:30;29.52;;;19.42;;
25936;SDS011;13733;51.178;4.450;2023-05-10T01:58:58;31.85;;;19.65;;
25936;SDS011;13733;51.178;4.450;2023-05-10T02:01:27;29.50;;;19.30;;
25936;SDS011;13733;51.178;4.450;2023-05-10T02:03:53;31.65;;;19.55;;
25936;SDS011;13733;51.178;4.450;2023-05-10T02:06:20;30.52;;;19.17;;
25936;SDS011;13733;51.178;4.450;2023-05-10T02:08:49;28.92;;;18.88;;
25936;SDS011;13733;51.178;4.450;2023-05-10T02:11:16;27.00;;;18.08;;
25936;SDS011;13733;51.178;4.450;2023-05-10T02:13:43;27.30;;;18.25;;
25936;SDS011;13733;51.178;4.450;2023-05-10T02:16:12;29.73;;;18.60;;
25936;SDS011;13733;51.178;4.450;2023-05-10T02:18:39;26.90;;;17.98;;
25936;SDS011;13733;51.178;4.450;2023-05-10T02:21:06;30.92;;;19.30;;
25936;SDS011;13733;51.178;4.450;2023-05-10T02:23:37;38.47;;;21.15;;
25936;SDS011;13733;51.178;4.450;2023-05-10T02:26:04;35.80;;;20.10;;
25936;SDS011;13733;51.178;4.450;2023-05-10T02:28:31;28.48;;;19.27;;
25936;SDS011;13733;51.178;4.450;2023-05-10T02:30:58;31.67;;;21.40;;
25936;SDS011;13733;51.178;4.450;2023-05-10T02:33:24;29.80;;;20.90;;
25936;SDS011;13733;51.178;4.450;2023-05-10T02:35:51;29.58;;;20.98;;
25936;SDS011;13733;51.178;4.450;2023-05-10T02:38:19;35.10;;;22.70;;
25936;SDS011;13733;51.178;4.450;2023-05-10T02:40:46;30.42;;;21.15;;
25936;SDS011;13733;51.178;4.450;2023-05-10T02:43:14;34.17;;;23.13;;
25936;SDS011;13733;51.178;4.450;2023-05-10T02:45:42;30.13;;;21.73;;
25936;SDS011;13733;51.178;4.450;2023-05-10T02:48:10;41.53;;;24.05;;
25936;SDS011;13733;51.178;4.450;2023-05-10T02:50:36;34.55;;;23.52;;
25936;SDS011;13733;51.178;4.450;2023-05-10T02:53:10;36.40;;;24.57;;
25936;SDS011;13733;51.178;4.450;2023-05-10T02:55:45;43.20;;;28.27;;
25936;SDS011;13733;51.178;4.450;2023-05-10T02:58:16;50.90;;;31.50;;
25936;SDS011;13733;51.178;4.450;2023-05-10T03:00:44;55.53;;;32.88;;
25936;SDS011;13733;51.178;4.450;2023-05-10T03:03:11;65.40;;;39.83;;
25936;SDS011;13733;51.178;4.450;2023-05-10T03:05:37;77.20;;;44.90;;
25936;SDS011;13733;51.178;4.450;2023-05-10T03:08:03;120.80;;;62.97;;
25936;SDS011;13733;51.178;4.450;2023-05-10T03:10:30;133.18;;;71.30;;
25936;SDS011;13733;51.178;4.450;2023-05-10T03:13:07;146.40;;;79.60;;
25936;SDS011;13733;51.178;4.450;2023-05-10T03:16:05;147.57;;;77.32;;
25936;SDS011;13733;51.178;4.450;2023-05-10T03:21:28;129.48;;;73.13;;
25936;SDS011;13733;51.178;4.450;2023-05-10T03:23:59;129.55;;;71.65;;
25936;SDS011;13733;51.178;4.450;2023-05-10T03:26:32;126.88;;;67.72;;
25936;SDS011;13733;51.178;4.450;2023-05-10T03:29:11;109.82;;;63.03;;
25936;SDS011;13733;51.178;4.450;2023-05-10T03:31:38;96.18;;;55.97;;
25936;SDS011;13733;51.178;4.450;2023-05-10T03:34:04;84.20;;;50.38;;
25936;SDS011;13733;51.178;4.450;2023-05-10T03:36:31;78.80;;;43.72;;
25936;SDS011;13733;51.178;4.450;2023-05-10T03:38:57;62.70;;;38.08;;
25936;SDS011;13733;51.178;4.450;2023-05-10T03:41:23;59.95;;;39.08;;
25936;SDS011;13733;51.178;4.450;2023-05-10T03:43:50;62.28;;;38.80;;
25936;SDS011;13733;51.178;4.450;2023-05-10T03:46:16;62.33;;;38.65;;
25936;SDS011;13733;51.178;4.450;2023-05-10T03:48:43;64.75;;;38.72;;
25936;SDS011;13733;51.178;4.450;2023-05-10T03:51:09;65.05;;;40.45;;
25936;SDS011;13733;51.178;4.450;2023-05-10T03:53:35;66.95;;;37.70;;
25936;SDS011;13733;51.178;4.450;2023-05-10T03:56:00;62.45;;;38.17;;
25936;SDS011;13733;51.178;4.450;2023-05-10T03:58:26;64.22;;;39.33;;
25936;SDS011;13733;51.178;4.450;2023-05-10T04:00:52;61.70;;;38.13;;
25936;SDS011;13733;51.178;4.450;2023-05-10T04:03:19;65.30;;;38.50;;
25936;SDS011;13733;51.178;4.450;2023-05-10T04:05:45;65.10;;;38.83;;
25936;SDS011;13733;51.178;4.450;2023-05-10T04:08:11;65.65;;;37.92;;
25936;SDS011;13733;51.178;4.450;2023-05-10T04:10:37;77.38;;;40.10;;
25936;SDS011;13733;51.178;4.450;2023-05-10T04:13:02;64.35;;;37.35;;
25936;SDS011;13733;51.178;4.450;2023-05-10T04:15:28;71.75;;;39.33;;
25936;SDS011;13733;51.178;4.450;2023-05-10T04:17:54;75.15;;;41.03;;
25936;SDS011;13733;51.178;4.450;2023-05-10T04:20:21;76.63;;;40.28;;
25936;SDS011;13733;51.178;4.450;2023-05-10T04:22:46;74.50;;;41.35;;
25936;SDS011;13733;51.178;4.450;2023-05-10T04:25:12;68.13;;;37.88;;
25936;SDS011;13733;51.178;4.450;2023-05-10T04:27:38;62.40;;;37.40;;
25936;SDS011;13733;51.178;4.450;2023-05-10T04:30:04;70.65;;;38.42;;
25936;SDS011;13733;51.178;4.450;2023-05-10T04:32:30;72.38;;;39.60;;
25936;SDS011;13733;51.178;4.450;2023-05-10T04:34:56;67.80;;;38.55;;
25936;SDS011;13733;51.178;4.450;2023-05-10T04:37:22;63.97;;;35.90;;
25936;SDS011;13733;51.178;4.450;2023-05-10T04:39:49;55.67;;;34.45;;
25936;SDS011;13733;51.178;4.450;2023-05-10T04:42:15;57.70;;;32.35;;
25936;SDS011;13733;51.178;4.450;2023-05-10T04:44:41;57.97;;;32.88;;
25936;SDS011;13733;51.178;4.450;2023-05-10T04:47:06;55.45;;;33.65;;
25936;SDS011;13733;51.178;4.450;2023-05-10T04:49:32;53.30;;;31.15;;
25936;SDS011;13733;51.178;4.450;2023-05-10T04:52:00;52.63;;;32.55;;
25936;SDS011;13733;51.178;4.450;2023-05-10T04:54:26;56.65;;;34.33;;
25936;SDS011;13733;51.178;4.450;2023-05-10T04:56:52;53.60;;;32.90;;
25936;SDS011;13733;51.178;4.450;2023-05-10T04:59:18;58.60;;;34.40;;
25936;SDS011;13733;51.178;4.450;2023-05-10T05:01:46;59.13;;;34.22;;
25936;SDS011;13733;51.178;4.450;2023-05-10T05:04:13;54.10;;;33.58;;
25936;SDS011;13733;51.178;4.450;2023-05-10T05:06:39;53.75;;;33.28;;
25936;SDS011;13733;51.178;4.450;2023-05-10T05:09:06;56.03;;;33.97;;
25936;SDS011;13733;51.178;4.450;2023-05-10T05:11:32;57.53;;;35.60;;
25936;SDS011;13733;51.178;4.450;2023-05-10T05:13:58;56.80;;;35.17;;
25936;SDS011;13733;51.178;4.450;2023-05-10T05:16:25;57.72;;;35.97;;
25936;SDS011;13733;51.178;4.450;2023-05-10T05:18:52;55.13;;;35.92;;
25936;SDS011;13733;51.178;4.450;2023-05-10T05:21:18;53.50;;;34.33;;
25936;SDS011;13733;51.178;4.450;2023-05-10T05:23:45;53.38;;;34.40;;
25936;SDS011;13733;51.178;4.450;2023-05-10T05:26:11;57.15;;;34.75;;
25936;SDS011;13733;51.178;4.450;2023-05-10T05:28:37;47.53;;;32.60;;
25936;SDS011;13733;51.178;4.450;2023-05-10T05:31:06;52.25;;;34.80;;
25936;SDS011;13733;51.178;4.450;2023-05-10T05:33:33;52.13;;;35.05;;
25936;SDS011;13733;51.178;4.450;2023-05-10T05:36:02;52.65;;;34.67;;
25936;SDS011;13733;51.178;4.450;2023-05-10T05:38:29;55.50;;;36.05;;
25936;SDS011;13733;51.178;4.450;2023-05-10T05:40:55;57.35;;;35.92;;
25936;SDS011;13733;51.178;4.450;2023-05-10T05:43:21;54.80;;;34.42;;
25936;SDS011;13733;51.178;4.450;2023-05-10T05:45:47;55.72;;;37.15;;
25936;SDS011;13733;51.178;4.450;2023-05-10T05:48:14;59.78;;;38.55;;
25936;SDS011;13733;51.178;4.450;2023-05-10T05:50:40;54.55;;;36.05;;
25936;SDS011;13733;51.178;4.450;2023-05-10T05:53:06;58.40;;;36.55;;
25936;SDS011;13733;51.178;4.450;2023-05-10T05:55:31;53.53;;;35.40;;
25936;SDS011;13733;51.178;4.450;2023-05-10T05:57:58;53.15;;;35.50;;
25936;SDS011;13733;51.178;4.450;2023-05-10T06:00:24;50.67;;;33.65;;
25936;SDS011;13733;51.178;4.450;2023-05-10T06:02:49;48.45;;;31.58;;
25936;SDS011;13733;51.178;4.450;2023-05-10T06:05:15;43.10;;;31.13;;
25936;SDS011;13733;51.178;4.450;2023-05-10T06:07:41;42.65;;;30.40;;
25936;SDS011;13733;51.178;4.450;2023-05-10T06:10:07;43.05;;;31.35;;
25936;SDS011;13733;51.178;4.450;2023-05-10T06:12:34;39.60;;;30.88;;
25936;SDS011;13733;51.178;4.450;2023-05-10T06:14:59;45.63;;;30.95;;
25936;SDS011;13733;51.178;4.450;2023-05-10T06:17:25;52.63;;;33.20;;
25936;SDS011;13733;51.178;4.450;2023-05-10T06:19:51;40.22;;;28.20;;
25936;SDS011;13733;51.178;4.450;2023-05-10T06:22:18;37.83;;;27.45;;
25936;SDS011;13733;51.178;4.450;2023-05-10T06:24:44;41.20;;;26.92;;
25936;SDS011;13733;51.178;4.450;2023-05-10T06:27:09;40.70;;;28.00;;
25936;SDS011;13733;51.178;4.450;2023-05-10T06:29:35;37.97;;;26.60;;
25936;SDS011;13733;51.178;4.450;2023-05-10T06:32:01;36.92;;;26.38;;
25936;SDS011;13733;51.178;4.450;2023-05-10T06:34:27;37.92;;;26.77;;
25936;SDS011;13733;51.178;4.450;2023-05-10T06:36:53;38.67;;;26.27;;
25936;SDS011;13733;51.178;4.450;2023-05-10T06:39:19;43.40;;;28.77;;
25936;SDS011;13733;51.178;4.450;2023-05-10T06:41:45;41.22;;;30.80;;
25936;SDS011;13733;51.178;4.450;2023-05-10T06:44:11;50.13;;;35.70;;
25936;SDS011;13733;51.178;4.450;2023-05-10T06:46:37;48.38;;;35.15;;
25936;SDS011;13733;51.178;4.450;2023-05-10T06:49:03;54.97;;;36.42;;
25936;SDS011;13733;51.178;4.450;2023-05-10T06:51:30;53.25;;;36.67;;
25936;SDS011;13733;51.178;4.450;2023-05-10T06:53:58;52.10;;;36.65;;
25936;SDS011;13733;51.178;4.450;2023-05-10T06:56:23;52.80;;;35.80;;
25936;SDS011;13733;51.178;4.450;2023-05-10T06:58:49;52.25;;;35.17;;
25936;SDS011;13733;51.178;4.450;2023-05-10T07:01:15;49.20;;;33.95;;
25936;SDS011;13733;51.178;4.450;2023-05-10T07:03:41;48.50;;;34.17;;
25936;SDS011;13733;51.178;4.450;2023-05-10T07:06:06;45.10;;;31.48;;
25936;SDS011;13733;51.178;4.450;2023-05-10T07:08:36;44.20;;;31.40;;
25936;SDS011;13733;51.178;4.450;2023-05-10T07:11:02;43.23;;;31.83;;
25936;SDS011;13733;51.178;4.450;2023-05-10T07:13:32;40.58;;;30.73;;
25936;SDS011;13733;51.178;4.450;2023-05-10T07:16:00;43.57;;;32.53;;
25936;SDS011;13733;51.178;4.450;2023-05-10T07:18:27;41.67;;;32.50;;
25936;SDS011;13733;51.178;4.450;2023-05-10T07:20:53;42.67;;;32.60;;
25936;SDS011;13733;51.178;4.450;2023-05-10T07:23:20;35.83;;;28.73;;
25936;SDS011;13733;51.178;4.450;2023-05-10T07:25:48;39.78;;;29.23;;
25936;SDS011;13733;51.178;4.450;2023-05-10T07:28:15;40.10;;;30.63;;
25936;SDS011;13733;51.178;4.450;2023-05-10T07:30:41;41.03;;;30.70;;
25936;SDS011;13733;51.178;4.450;2023-05-10T07:33:08;37.38;;;28.35;;
25936;SDS011;13733;51.178;4.450;2023-05-10T07:35:35;35.00;;;27.58;;
25936;SDS011;13733;51.178;4.450;2023-05-10T07:38:01;31.83;;;26.30;;
25936;SDS011;13733;51.178;4.450;2023-05-10T07:40:27;34.15;;;27.35;;
25936;SDS011;13733;51.178;4.450;2023-05-10T07:42:53;36.22;;;28.00;;
25936;SDS011;13733;51.178;4.450;2023-05-10T07:45:19;35.03;;;26.63;;
25936;SDS011;13733;51.178;4.450;2023-05-10T07:47:45;35.20;;;26.05;;
25936;SDS011;13733;51.178;4.450;2023-05-10T07:50:11;28.75;;;22.10;;
25936;SDS011;13733;51.178;4.450;2023-05-10T07:52:38;25.45;;;18.70;;
25936;SDS011;13733;51.178;4.450;2023-05-10T07:55:04;26.63;;;20.65;;
25936;SDS011;13733;51.178;4.450;2023-05-10T07:57:33;23.73;;;20.02;;
25936;SDS011;13733;51.178;4.450;2023-05-10T07:59:59;26.30;;;19.55;;
25936;SDS011;13733;51.178;4.450;2023-05-10T08:02:25;26.38;;;20.23;;
25936;SDS011;13733;51.178;4.450;2023-05-10T08:04:51;27.73;;;21.40;;
25936;SDS011;13733;51.178;4.450;2023-05-10T08:07:17;26.85;;;21.95;;
25936;SDS011;13733;51.178;4.450;2023-05-10T08:09:43;36.08;;;26.52;;
25936;SDS011;13733;51.178;4.450;2023-05-10T08:12:09;37.80;;;27.13;;
25936;SDS011;13733;51.178;4.450;2023-05-10T08:14:35;39.92;;;31.00;;
25936;SDS011;13733;51.178;4.450;2023-05-10T08:17:04;37.25;;;28.52;;
25936;SDS011;13733;51.178;4.450;2023-05-10T08:19:30;19.33;;;16.63;;
25936;SDS011;13733;51.178;4.450;2023-05-10T08:21:56;23.25;;;19.63;;
25936;SDS011;13733;51.178;4.450;2023-05-10T08:24:22;29.38;;;23.52;;
25936;SDS011;13733;51.178;4.450;2023-05-10T08:26:48;33.90;;;27.02;;
25936;SDS011;13733;51.178;4.450;2023-05-10T08:29:14;35.70;;;26.60;;
25936;SDS011;13733;51.178;4.450;2023-05-10T08:31:40;32.63;;;25.38;;
25936;SDS011;13733;51.178;4.450;2023-05-10T08:34:06;31.25;;;24.10;;
25936;SDS011;13733;51.178;4.450;2023-05-10T08:36:32;32.90;;;26.25;;
25936;SDS011;13733;51.178;4.450;2023-05-10T08:38:58;32.53;;;25.92;;
25936;SDS011;13733;51.178;4.450;2023-05-10T08:41:24;35.97;;;26.88;;
25936;SDS011;13733;51.178;4.450;2023-05-10T08:43:53;30.92;;;24.33;;
25936;SDS011;13733;51.178;4.450;2023-05-10T08:46:20;30.08;;;24.52;;
25936;SDS011;13733;51.178;4.450;2023-05-10T08:48:47;28.65;;;23.33;;
25936;SDS011;13733;51.178;4.450;2023-05-10T08:51:17;28.20;;;22.80;;
25936;SDS011;13733;51.178;4.450;2023-05-10T08:53:45;30.63;;;21.48;;
25936;SDS011;13733;51.178;4.450;2023-05-10T08:56:11;28.20;;;21.50;;
25936;SDS011;13733;51.178;4.450;2023-05-10T08:58:38;24.50;;;20.40;;
25936;SDS011;13733;51.178;4.450;2023-05-10T09:01:04;28.20;;;21.48;;
25936;SDS011;13733;51.178;4.450;2023-05-10T09:03:31;27.42;;;20.52;;
25936;SDS011;13733;51.178;4.450;2023-05-10T09:05:57;28.15;;;20.10;;
25936;SDS011;13733;51.178;4.450;2023-05-10T09:08:24;26.58;;;19.98;;
25936;SDS011;13733;51.178;4.450;2023-05-10T09:10:56;30.60;;;20.67;;
25936;SDS011;13733;51.178;4.450;2023-05-10T09:13:22;22.63;;;18.27;;
25936;SDS011;13733;51.178;4.450;2023-05-10T09:15:49;26.95;;;19.77;;
25936;SDS011;13733;51.178;4.450;2023-05-10T09:18:15;28.73;;;18.65;;
25936;SDS011;13733;51.178;4.450;2023-05-10T09:20:41;21.15;;;17.13;;
25936;SDS011;13733;51.178;4.450;2023-05-10T09:23:07;21.80;;;17.55;;
25936;SDS011;13733;51.178;4.450;2023-05-10T09:25:33;24.30;;;18.02;;
25936;SDS011;13733;51.178;4.450;2023-05-10T09:27:59;27.35;;;18.98;;
25936;SDS011;13733;51.178;4.450;2023-05-10T09:30:27;27.35;;;18.02;;
25936;SDS011;13733;51.178;4.450;2023-05-10T09:32:54;30.70;;;19.13;;
25936;SDS011;13733;51.178;4.450;2023-05-10T09:35:23;26.92;;;18.80;;
25936;SDS011;13733;51.178;4.450;2023-05-10T09:37:52;28.92;;;19.17;;
25936;SDS011;13733;51.178;4.450;2023-05-10T09:40:23;30.85;;;20.75;;
25936;SDS011;13733;51.178;4.450;2023-05-10T09:45:33;31.45;;;19.70;;
25936;SDS011;13733;51.178;4.450;2023-05-10T09:48:01;34.95;;;19.35;;
25936;SDS011;13733;51.178;4.450;2023-05-10T09:50:28;35.70;;;18.63;;
25936;SDS011;13733;51.178;4.450;2023-05-10T09:53:01;26.27;;;17.80;;
25936;SDS011;13733;51.178;4.450;2023-05-10T09:58:06;27.20;;;15.55;;
25936;SDS011;13733;51.178;4.450;2023-05-10T10:00:39;23.10;;;15.38;;
25936;SDS011;13733;51.178;4.450;2023-05-10T10:03:07;32.55;;;15.15;;
25936;SDS011;13733;51.178;4.450;2023-05-10T10:05:41;25.73;;;14.95;;
25936;SDS011;13733;51.178;4.450;2023-05-10T10:08:08;25.00;;;15.00;;
25936;SDS011;13733;51.178;4.450;2023-05-10T10:10:35;25.70;;;13.35;;
25936;SDS011;13733;51.178;4.450;2023-05-10T10:13:01;23.15;;;13.23;;
25936;SDS011;13733;51.178;4.450;2023-05-10T10:15:27;23.10;;;14.23;;
25936;SDS011;13733;51.178;4.450;2023-05-10T10:17:53;28.13;;;13.27;;
25936;SDS011;13733;51.178;4.450;2023-05-10T10:20:20;22.73;;;14.77;;
25936;SDS011;13733;51.178;4.450;2023-05-10T10:22:47;20.55;;;12.70;;
25936;SDS011;13733;51.178;4.450;2023-05-10T10:25:16;21.42;;;13.80;;
25936;SDS011;13733;51.178;4.450;2023-05-10T10:27:49;20.95;;;13.70;;
25936;SDS011;13733;51.178;4.450;2023-05-10T10:36:12;20.05;;;12.95;;
25936;SDS011;13733;51.178;4.450;2023-05-10T10:41:26;20.27;;;14.25;;
25936;SDS011;13733;51.178;4.450;2023-05-10T10:49:32;19.33;;;12.82;;
25936;SDS011;13733;51.178;4.450;2023-05-10T11:02:56;24.95;;;13.73;;
25936;SDS011;13733;51.178;4.450;2023-05-10T11:05:41;19.25;;;13.20;;
25936;SDS011;13733;51.178;4.450;2023-05-10T11:08:12;23.17;;;14.63;;
25936;SDS011;13733;51.178;4.450;2023-05-10T11:13:28;20.65;;;13.50;;
25936;SDS011;13733;51.178;4.450;2023-05-10T11:16:13;20.73;;;14.48;;
25936;SDS011;13733;51.178;4.450;2023-05-10T11:19:01;18.98;;;12.75;;
25936;SDS011;13733;51.178;4.450;2023-05-10T11:21:31;16.80;;;12.18;;
25936;SDS011;13733;51.178;4.450;2023-05-10T11:23:59;17.15;;;12.63;;
25936;SDS011;13733;51.178;4.450;2023-05-10T11:26:29;17.95;;;12.70;;
25936;SDS011;13733;51.178;4.450;2023-05-10T11:28:56;18.45;;;12.55;;
25936;SDS011;13733;51.178;4.450;2023-05-10T11:31:24;19.05;;;13.25;;
25936;SDS011;13733;51.178;4.450;2023-05-10T11:33:56;18.38;;;13.20;;
25936;SDS011;13733;51.178;4.450;2023-05-10T11:36:24;19.30;;;14.10;;
25936;SDS011;13733;51.178;4.450;2023-05-10T11:38:51;19.52;;;14.25;;
25936;SDS011;13733;51.178;4.450;2023-05-10T11:41:19;19.77;;;13.35;;
25936;SDS011;13733;51.178;4.450;2023-05-10T11:43:52;18.33;;;13.45;;
25936;SDS011;13733;51.178;4.450;2023-05-10T11:46:20;18.92;;;12.80;;
25936;SDS011;13733;51.178;4.450;2023-05-10T11:48:51;19.67;;;13.13;;
25936;SDS011;13733;51.178;4.450;2023-05-10T11:51:20;20.00;;;14.18;;
25936;SDS011;13733;51.178;4.450;2023-05-10T11:53:50;17.88;;;13.00;;
25936;SDS011;13733;51.178;4.450;2023-05-10T11:56:18;17.00;;;11.75;;
25936;SDS011;13733;51.178;4.450;2023-05-10T11:58:44;21.13;;;13.43;;
25936;SDS011;13733;51.178;4.450;2023-05-10T12:01:12;15.00;;;12.05;;
25936;SDS011;13733;51.178;4.450;2023-05-10T12:03:38;17.98;;;11.77;;
25936;SDS011;13733;51.178;4.450;2023-05-10T12:06:05;16.17;;;11.95;;
25936;SDS011;13733;51.178;4.450;2023-05-10T12:08:32;17.13;;;12.05;;
25936;SDS011;13733;51.178;4.450;2023-05-10T12:11:05;14.68;;;11.02;;
25936;SDS011;13733;51.178;4.450;2023-05-10T12:13:37;13.80;;;11.90;;
25936;SDS011;13733;51.178;4.450;2023-05-10T12:16:18;15.57;;;12.52;;
25936;SDS011;13733;51.178;4.450;2023-05-10T12:18:48;12.65;;;10.43;;
25936;SDS011;13733;51.178;4.450;2023-05-10T12:21:16;14.43;;;11.43;;
25936;SDS011;13733;51.178;4.450;2023-05-10T12:23:42;19.85;;;12.23;;
25936;SDS011;13733;51.178;4.450;2023-05-10T12:26:10;17.30;;;11.35;;
25936;SDS011;13733;51.178;4.450;2023-05-10T12:28:36;16.55;;;11.68;;
25936;SDS011;13733;51.178;4.450;2023-05-10T12:31:27;14.38;;;12.15;;
25936;SDS011;13733;51.178;4.450;2023-05-10T12:33:53;14.20;;;11.07;;
25936;SDS011;13733;51.178;4.450;2023-05-10T12:36:22;17.40;;;11.60;;
25936;SDS011;13733;51.178;4.450;2023-05-10T12:38:49;16.90;;;11.88;;
25936;SDS011;13733;51.178;4.450;2023-05-10T12:41:15;16.63;;;11.35;;
25936;SDS011;13733;51.178;4.450;2023-05-10T12:43:42;14.43;;;10.30;;
25936;SDS011;13733;51.178;4.450;2023-05-10T12:46:09;16.77;;;12.65;;
25936;SDS011;13733;51.178;4.450;2023-05-10T12:48:37;17.05;;;12.48;;
25936;SDS011;13733;51.178;4.450;2023-05-10T12:51:04;15.88;;;11.18;;
25936;SDS011;13733;51.178;4.450;2023-05-10T12:53:34;14.60;;;12.20;;
25936;SDS011;13733;51.178;4.450;2023-05-10T12:56:01;14.70;;;10.68;;
25936;SDS011;13733;51.178;4.450;2023-05-10T12:58:26;14.90;;;11.40;;
25936;SDS011;13733;51.178;4.450;2023-05-10T13:00:52;13.77;;;10.95;;
25936;SDS011;13733;51.178;4.450;2023-05-10T13:03:19;17.83;;;11.70;;
25936;SDS011;13733;51.178;4.450;2023-05-10T13:05:45;16.33;;;10.32;;
25936;SDS011;13733;51.178;4.450;2023-05-10T13:08:10;14.80;;;11.35;;
25936;SDS011;13733;51.178;4.450;2023-05-10T13:10:36;16.17;;;11.93;;
25936;SDS011;13733;51.178;4.450;2023-05-10T13:13:02;20.73;;;11.98;;
25936;SDS011;13733;51.178;4.450;2023-05-10T13:15:28;15.13;;;11.77;;
25936;SDS011;13733;51.178;4.450;2023-05-10T13:17:54;12.80;;;11.27;;
25936;SDS011;13733;51.178;4.450;2023-05-10T13:20:20;19.52;;;13.00;;
25936;SDS011;13733;51.178;4.450;2023-05-10T13:22:48;16.35;;;12.20;;
25936;SDS011;13733;51.178;4.450;2023-05-10T13:25:15;16.88;;;12.15;;
25936;SDS011;13733;51.178;4.450;2023-05-10T13:27:40;22.17;;;13.00;;
25936;SDS011;13733;51.178;4.450;2023-05-10T13:30:07;17.80;;;12.18;;
25936;SDS011;13733;51.178;4.450;2023-05-10T13:32:33;16.77;;;11.40;;
25936;SDS011;13733;51.178;4.450;2023-05-10T13:34:59;16.88;;;11.13;;
25936;SDS011;13733;51.178;4.450;2023-05-10T13:37:25;18.48;;;12.13;;
25936;SDS011;13733;51.178;4.450;2023-05-10T13:39:51;16.15;;;12.30;;
25936;SDS011;13733;51.178;4.450;2023-05-10T13:42:17;20.15;;;12.27;;
25936;SDS011;13733;51.178;4.450;2023-05-10T13:44:43;15.27;;;11.57;;
25936;SDS011;13733;51.178;4.450;2023-05-10T13:47:09;16.23;;;11.77;;
25936;SDS011;13733;51.178;4.450;2023-05-10T13:49:35;17.95;;;13.05;;
25936;SDS011;13733;51.178;4.450;2023-05-10T13:52:01;18.80;;;12.95;;
25936;SDS011;13733;51.178;4.450;2023-05-10T13:54:32;16.55;;;12.30;;
25936;SDS011;13733;51.178;4.450;2023-05-10T13:56:59;16.83;;;13.80;;
25936;SDS011;13733;51.178;4.450;2023-05-10T13:59:28;19.77;;;12.52;;
25936;SDS011;13733;51.178;4.450;2023-05-10T14:01:56;21.58;;;13.27;;
25936;SDS011;13733;51.178;4.450;2023-05-10T14:04:22;20.42;;;12.98;;
25936;SDS011;13733;51.178;4.450;2023-05-10T14:06:48;20.95;;;13.15;;
25936;SDS011;13733;51.178;4.450;2023-05-10T14:09:14;18.65;;;14.00;;
25936;SDS011;13733;51.178;4.450;2023-05-10T14:11:41;21.00;;;15.60;;
25936;SDS011;13733;51.178;4.450;2023-05-10T14:14:11;21.08;;;15.30;;
25936;SDS011;13733;51.178;4.450;2023-05-10T14:16:41;19.88;;;15.73;;
25936;SDS011;13733;51.178;4.450;2023-05-10T14:21:34;23.77;;;15.48;;
25936;SDS011;13733;51.178;4.450;2023-05-10T14:24:00;22.85;;;15.40;;
25936;SDS011;13733;51.178;4.450;2023-05-10T14:26:26;19.75;;;14.80;;
25936;SDS011;13733;51.178;4.450;2023-05-10T14:28:52;20.75;;;14.98;;
25936;SDS011;13733;51.178;4.450;2023-05-10T14:31:18;19.33;;;14.32;;
25936;SDS011;13733;51.178;4.450;2023-05-10T14:33:46;19.98;;;14.35;;
25936;SDS011;13733;51.178;4.450;2023-05-10T14:36:12;22.58;;;15.25;;
25936;SDS011;13733;51.178;4.450;2023-05-10T14:38:39;21.20;;;15.50;;
25936;SDS011;13733;51.178;4.450;2023-05-10T14:41:05;21.45;;;15.90;;
25936;SDS011;13733;51.178;4.450;2023-05-10T14:43:31;24.35;;;15.57;;
25936;SDS011;13733;51.178;4.450;2023-05-10T14:45:57;18.33;;;14.85;;
25936;SDS011;13733;51.178;4.450;2023-05-10T14:48:23;20.00;;;14.05;;
25936;SDS011;13733;51.178;4.450;2023-05-10T14:50:49;17.13;;;15.25;;
25936;SDS011;13733;51.178;4.450;2023-05-10T14:53:15;19.45;;;15.07;;
25936;SDS011;13733;51.178;4.450;2023-05-10T14:55:41;19.50;;;14.85;;
25936;SDS011;13733;51.178;4.450;2023-05-10T14:58:07;21.63;;;16.02;;
25936;SDS011;13733;51.178;4.450;2023-05-10T15:00:33;21.15;;;15.05;;
25936;SDS011;13733;51.178;4.450;2023-05-10T15:02:59;19.33;;;14.98;;
25936;SDS011;13733;51.178;4.450;2023-05-10T15:05:26;18.25;;;11.65;;
25936;SDS011;13733;51.178;4.450;2023-05-10T15:07:52;12.27;;;8.15;;
25936;SDS011;13733;51.178;4.450;2023-05-10T15:10:18;8.23;;;6.63;;